Time;durP1;ratioP1;P1;durP2;ratioP2;P2;SDS_P1;SDS_P2;PMS_P1;PMS_P2;Temp;Humidity;BMP_temperature;BMP_pressure;BME280_temperature;BME280_humidity;BME280_pressure;Samples;Min_cycle;Max_cycle;Signal;HPM_P1;HPM_P2
2023/01/26 00:02:09;;;;;;;18.60;10.45;;;;;;;1.35;77.27;97178.41;6228403;23;20048;-83
2023/01/26 00:04:36;;;;;;;17.55;9.75;;;;;;;1.34;76.50;97172.47;6228164;23;20017;-83
2023/01/26 00:07:04;;;;;;;21.95;12.48;;;;;;;1.30;75.74;97171.03;6227342;23;20372;-84
2023/01/26 00:09:32;;;;;;;21.13;11.57;;;;;;;1.27;76.07;97168.69;6226893;23;20072;-83
2023/01/26 00:12:00;;;;;;;22.02;12.13;;;;;;;1.26;75.86;97169.63;6228601;23;20021;-83
2023/01/26 00:14:48;;;;;;;22.67;12.23;;;;;;;1.22;75.92;97166.47;6226670;23;20036;-83
2023/01/26 00:17:24;;;;;;;17.50;10.80;;;;;;;1.18;75.54;97161.63;6229370;23;20039;-83
2023/01/26 00:19:54;;;;;;;21.02;11.32;;;;;;;1.13;75.77;97158.56;6226961;23;20318;-84
2023/01/26 00:22:22;;;;;;;19.98;10.90;;;;;;;1.17;76.98;97155.69;6231714;23;20016;-84
2023/01/26 00:24:50;;;;;;;22.38;11.80;;;;;;;1.22;76.78;97148.47;6234578;23;20096;-84
2023/01/26 00:27:17;;;;;;;24.23;12.48;;;;;;;1.22;76.60;97143.34;6231924;23;20024;-84
2023/01/26 00:29:45;;;;;;;23.52;12.32;;;;;;;1.22;76.89;97140.78;6228385;23;20016;-83
2023/01/26 00:32:13;;;;;;;24.02;12.93;;;;;;;1.23;77.00;97137.25;6229402;23;20012;-84
2023/01/26 00:34:42;;;;;;;21.15;12.10;;;;;;;1.23;76.81;97133.88;6231149;23;20104;-86
2023/01/26 00:37:10;;;;;;;23.73;12.55;;;;;;;1.26;77.79;97133.63;6234343;23;20029;-83
2023/01/26 00:39:38;;;;;;;21.52;11.75;;;;;;;1.23;77.14;97134.69;6230204;23;20027;-84
2023/01/26 00:42:12;;;;;;;22.05;11.98;;;;;;;1.23;77.05;97134.69;6230375;23;20099;-83
2023/01/26 00:44:42;;;;;;;20.25;11.48;;;;;;;1.23;76.09;97139.81;6228914;23;20017;-83
2023/01/26 00:47:11;;;;;;;19.67;11.57;;;;;;;1.24;76.75;97126.03;6227175;23;20104;-83
2023/01/26 00:49:39;;;;;;;20.40;12.25;;;;;;;1.24;75.90;97120.06;6229041;23;20028;-84
2023/01/26 00:52:08;;;;;;;21.20;11.73;;;;;;;1.24;76.93;97113.19;6229241;23;20035;-84
2023/01/26 00:54:36;;;;;;;22.25;12.35;;;;;;;1.26;76.84;97114.84;6221678;23;20023;-82
2023/01/26 00:57:04;;;;;;;22.13;11.18;;;;;;;1.22;76.33;97112.50;6190222;23;20017;-83
2023/01/26 00:59:32;;;;;;;23.45;12.75;;;;;;;1.22;76.25;97107.34;6215570;23;20023;-83
2023/01/26 01:02:01;;;;;;;26.02;13.32;;;;;;;1.21;75.67;97121.13;6218616;23;20027;-84
2023/01/26 01:04:29;;;;;;;23.15;13.98;;;;;;;1.22;76.38;97112.50;6218635;23;20346;-83
2023/01/26 01:06:57;;;;;;;23.70;12.57;;;;;;;1.23;76.57;97111.56;6216130;23;20413;-84
2023/01/26 01:09:26;;;;;;;21.90;11.25;;;;;;;1.19;76.49;97107.56;6215083;23;20016;-83
2023/01/26 01:11:54;;;;;;;22.52;12.05;;;;;;;1.21;77.04;97110.84;6216042;23;20012;-82
2023/01/26 01:14:22;;;;;;;23.38;12.60;;;;;;;1.24;77.05;97104.66;6215652;23;20100;-83
2023/01/26 01:16:49;;;;;;;24.85;13.40;;;;;;;1.21;76.88;97100.56;6215785;23;20083;-83
2023/01/26 01:19:18;;;;;;;23.17;12.48;;;;;;;1.27;78.13;97093.31;6214916;23;20040;-83
2023/01/26 01:21:45;;;;;;;25.45;14.00;;;;;;;1.35;79.03;97091.84;6215785;23;20504;-84
2023/01/26 01:24:13;;;;;;;25.95;13.38;;;;;;;1.40;78.37;97089.78;6215893;23;20095;-83
2023/01/26 01:26:42;;;;;;;22.35;13.02;;;;;;;1.38;77.58;97091.63;6215775;23;20071;-83
2023/01/26 01:29:13;;;;;;;19.23;11.50;;;;;;;1.42;78.59;97081.94;6215089;23;20020;-83
2023/01/26 01:31:42;;;;;;;23.80;13.15;;;;;;;1.46;77.91;97082.53;6216206;23;20017;-83
2023/01/26 01:34:09;;;;;;;27.70;13.30;;;;;;;1.46;77.32;97082.53;6215950;23;20406;-82
2023/01/26 01:36:37;;;;;;;27.52;12.77;;;;;;;1.43;77.77;97083.59;6216044;23;20020;-83
2023/01/26 01:39:05;;;;;;;26.90;13.30;;;;;;;1.42;78.04;97074.22;6215304;23;20096;-83
2023/01/26 01:41:32;;;;;;;22.95;11.88;;;;;;;1.38;77.73;97075.41;6216079;23;20020;-83
2023/01/26 01:44:16;;;;;;;22.73;12.10;;;;;;;1.34;76.49;97071.41;6216419;23;20021;-83
2023/01/26 01:46:48;;;;;;;22.75;13.80;;;;;;;1.35;78.52;97066.13;6215628;23;20076;-85
2023/01/26 01:49:20;;;;;;;22.38;13.27;;;;;;;1.41;78.32;97067.44;6215614;23;20020;-83
2023/01/26 01:51:53;;;;;;;25.30;13.93;;;;;;;1.43;78.14;97058.69;6216179;23;20023;-83
2023/01/26 01:54:26;;;;;;;24.77;13.05;;;;;;;1.47;78.16;97059.28;6218046;23;20017;-83
2023/01/26 01:56:57;;;;;;;24.30;12.73;;;;;;;1.48;78.30;97066.06;6218219;23;20027;-83
2023/01/26 01:59:26;;;;;;;27.30;14.07;;;;;;;1.48;77.33;97053.19;6217511;23;20024;-83
2023/01/26 02:01:56;;;;;;;22.55;13.73;;;;;;;1.43;77.01;97052.72;6217656;23;20017;-83
2023/01/26 02:04:26;;;;;;;25.23;12.57;;;;;;;1.39;78.22;97056.47;6217573;23;20019;-83
2023/01/26 02:06:55;;;;;;;25.98;14.40;;;;;;;1.39;77.81;97064.16;6218569;23;20056;-83
2023/01/26 02:12:19;;;;;;;24.23;12.35;;;;;;;1.35;78.52;97055.84;6243753;23;20047;-84
2023/01/26 02:14:50;;;;;;;28.33;14.55;;;;;;;1.37;78.07;97048.84;6234136;23;20068;-83
2023/01/26 02:17:17;;;;;;;26.38;13.63;;;;;;;1.34;77.36;97033.66;6221572;23;20400;-83
2023/01/26 02:19:52;;;;;;;26.42;14.13;;;;;;;1.28;76.88;97036.69;6219050;23;20021;-83
2023/01/26 02:22:34;;;;;;;23.77;12.88;;;;;;;1.31;78.39;97030.50;6218617;23;20012;-83
2023/01/26 02:25:12;;;;;;;24.55;13.07;;;;;;;1.37;79.23;97019.75;6218183;23;20016;-83
2023/01/26 02:27:41;;;;;;;23.20;12.40;;;;;;;1.37;78.66;97017.19;6226783;23;20040;-87
2023/01/26 02:30:12;;;;;;;23.48;12.13;;;;;;;1.34;78.42;97014.88;6244396;22;20023;-86
2023/01/26 02:32:39;;;;;;;23.55;12.80;;;;;;;1.33;78.20;97010.63;6244361;23;20064;-87
2023/01/26 02:35:08;;;;;;;22.65;11.68;;;;;;;1.33;78.73;97008.88;6224095;23;20017;-83
2023/01/26 02:37:35;;;;;;;19.00;11.23;;;;;;;1.33;78.00;97014.03;6218646;23;20377;-83
2023/01/26 02:40:10;;;;;;;20.15;11.85;;;;;;;1.27;77.77;97018.81;6216257;23;20043;-83
2023/01/26 02:42:37;;;;;;;24.50;12.68;;;;;;;1.20;78.00;97011.56;6216709;23;20032;-83
2023/01/26 02:45:08;;;;;;;21.27;12.45;;;;;;;1.17;78.72;97022.06;6217334;23;20021;-83
2023/01/26 02:47:35;;;;;;;20.08;10.85;;;;;;;1.17;79.09;97021.25;6216853;23;20024;-83
2023/01/26 02:50:03;;;;;;;25.45;11.90;;;;;;;1.16;78.79;97020.44;6215787;23;20107;-84
2023/01/26 02:52:31;;;;;;;18.77;10.98;;;;;;;1.20;79.34;97019.28;6216440;23;20043;-83
2023/01/26 02:57:44;;;;;;;20.20;11.00;;;;;;;1.24;78.67;97002.66;6216647;23;20046;-86
2023/01/26 03:00:17;;;;;;;18.70;10.82;;;;;;;1.29;78.86;97010.06;6216385;23;20400;-83
2023/01/26 03:02:46;;;;;;;20.13;10.40;;;;;;;1.27;78.97;96995.66;6216298;23;20016;-83
2023/01/26 03:05:14;;;;;;;20.88;11.80;;;;;;;1.24;78.62;96999.28;6216813;23;20016;-83
2023/01/26 03:07:41;;;;;;;18.33;10.77;;;;;;;1.24;78.93;97012.13;6216510;23;20278;-83
2023/01/26 03:10:11;;;;;;;17.98;10.48;;;;;;;1.27;79.22;97003.38;6216483;23;20056;-83
2023/01/26 03:12:39;;;;;;;18.77;11.30;;;;;;;1.28;79.02;97002.47;6216996;23;20021;-83
2023/01/26 03:27:25;;;;;;;16.17;9.95;;;;;;;1.20;76.37;96997.88;6216465;23;20016;-83
2023/01/26 03:29:16;;;;;;;20.80;12.13;;;;;;;1.08;77.46;97006.50;6215152;23;20023;-83
2023/01/26 03:31:44;;;;;;;21.90;11.70;;;;;;;1.08;78.16;97011.66;6216549;23;20020;-85
2023/01/26 03:34:13;;;;;;;22.17;12.30;;;;;;;1.13;78.13;97005.22;6216293;23;20027;-83
2023/01/26 03:36:41;;;;;;;21.77;11.23;;;;;;;1.11;78.12;97007.09;6216537;23;20465;-83
2023/01/26 03:41:06;;;;;;;21.40;11.32;;;;;;;1.08;78.12;97007.31;6215710;23;20020;-83
2023/01/26 03:58:30;;;;;;;20.02;10.63;;;;;;;1.13;78.71;96989.81;6215378;23;20040;-75
2023/01/26 04:00:58;;;;;;;23.75;12.43;;;;;;;1.16;79.09;96994.72;6216800;23;20032;-75
2023/01/26 04:08:57;;;;;;;20.90;11.38;;;;;;;1.30;79.62;96978.28;6245115;23;20042;-75
2023/01/26 04:11:24;;;;;;;18.60;10.40;;;;;;;1.32;79.57;96970.47;6246062;23;20031;-75
2023/01/26 04:22:09;;;;;;;19.65;10.75;;;;;;;1.21;78.67;96966.94;6245519;23;20030;-75
2023/01/26 04:24:36;;;;;;;21.10;10.52;;;;;;;1.17;78.71;96973.22;6245808;23;20106;-75
2023/01/26 04:27:04;;;;;;;19.85;10.65;;;;;;;1.15;78.45;96972.53;6245811;23;20020;-75
2023/01/26 04:29:31;;;;;;;18.80;10.20;;;;;;;1.17;78.41;96982.69;6244589;23;20562;-75
2023/01/26 04:32:00;;;;;;;18.88;10.10;;;;;;;1.12;78.27;96983.03;6246049;23;20026;-75
2023/01/26 04:34:27;;;;;;;17.75;9.55;;;;;;;1.12;78.91;96977.91;6245081;23;20023;-74
2023/01/26 04:36:55;;;;;;;17.42;9.32;;;;;;;1.10;78.26;96972.06;6245199;23;20022;-74
2023/01/26 04:39:24;;;;;;;15.40;9.32;;;;;;;1.11;79.00;96978.00;6244692;23;20098;-75
2023/01/26 04:41:51;;;;;;;16.70;9.05;;;;;;;1.15;78.96;96972.53;6245421;23;20356;-74
2023/01/26 04:44:19;;;;;;;16.33;9.75;;;;;;;1.17;78.82;96982.69;6246043;23;20384;-75
2023/01/26 04:46:47;;;;;;;15.48;7.78;;;;;;;1.21;79.39;96978.97;6246024;23;20023;-75
2023/01/26 04:49:15;;;;;;;12.05;7.30;;;;;;;1.23;78.19;96970.22;6244406;23;20503;-75
2023/01/26 04:51:42;;;;;;;11.43;6.82;;;;;;;1.26;78.08;96970.91;6245522;23;20102;-75
2023/01/26 04:54:10;;;;;;;11.10;7.13;;;;;;;1.30;78.58;96964.63;6246577;23;20091;-75
2023/01/26 04:56:39;;;;;;;10.38;7.05;;;;;;;1.28;77.19;96964.72;6246755;23;20036;-75
2023/01/26 04:59:07;;;;;;;9.30;5.70;;;;;;;1.21;77.09;96971.25;6245445;23;20024;-74
2023/01/26 05:01:35;;;;;;;8.85;5.50;;;;;;;1.19;77.17;96968.81;6246009;23;20023;-75
2023/01/26 05:04:04;;;;;;;9.35;5.38;;;;;;;1.18;78.05;96958.63;6245296;23;20024;-74
2023/01/26 05:06:32;;;;;;;9.15;5.20;;;;;;;1.19;78.29;96955.13;6244964;23;20066;-75
2023/01/26 05:09:00;;;;;;;8.38;5.03;;;;;;;1.19;76.90;96958.53;6244928;23;20030;-75
2023/01/26 05:11:27;;;;;;;7.32;4.75;;;;;;;1.16;76.31;96955.34;6245431;23;20052;-75
2023/01/26 05:13:57;;;;;;;8.70;4.97;;;;;;;1.15;76.45;96964.00;6245611;23;20380;-75
2023/01/26 05:16:24;;;;;;;6.80;4.13;;;;;;;1.16;76.33;96966.47;6244979;23;20016;-75
2023/01/26 05:18:53;;;;;;;9.07;5.15;;;;;;;1.17;76.96;96970.66;6244230;23;20020;-75
2023/01/26 05:21:23;;;;;;;8.50;4.57;;;;;;;1.20;78.29;96965.31;6245400;23;20024;-74
2023/01/26 05:23:51;;;;;;;8.63;4.95;;;;;;;1.26;78.83;96963.22;6245020;23;20058;-75
2023/01/26 05:26:18;;;;;;;7.13;4.75;;;;;;;1.30;79.15;96956.91;6245675;23;20412;-75
2023/01/26 05:28:46;;;;;;;7.63;4.93;;;;;;;1.31;77.63;96961.94;6246506;23;20084;-75
2023/01/26 05:31:15;;;;;;;7.20;4.55;;;;;;;1.28;76.94;96962.16;6247532;23;20016;-75
2023/01/26 05:33:42;;;;;;;8.18;5.25;;;;;;;1.30;76.62;96960.28;6246890;23;20031;-74
2023/01/26 05:36:10;;;;;;;7.25;4.97;;;;;;;1.33;77.56;96965.19;6246875;23;20472;-75
2023/01/26 05:38:37;;;;;;;6.75;4.45;;;;;;;1.33;76.30;96966.94;6246461;23;20337;-75
2023/01/26 05:41:07;;;;;;;6.78;4.07;;;;;;;1.27;74.61;96964.81;6247223;23;20020;-74
2023/01/26 05:43:34;;;;;;;8.60;5.47;;;;;;;1.20;74.49;96960.19;6247031;23;20015;-75
2023/01/26 05:46:02;;;;;;;7.63;5.30;;;;;;;1.17;76.29;96969.84;6247740;23;20042;-74
2023/01/26 05:48:31;;;;;;;10.32;5.28;;;;;;;1.18;77.27;96964.59;6245824;23;20385;-75
2023/01/26 05:50:58;;;;;;;10.27;6.05;;;;;;;1.22;77.76;96975.47;6247244;23;20395;-74
2023/01/26 05:53:26;;;;;;;12.35;6.13;;;;;;;1.23;77.38;96980.50;6246993;23;20048;-75
2023/01/26 05:55:54;;;;;;;9.52;6.30;;;;;;;1.23;76.36;96980.50;6247835;23;20016;-75
2023/01/26 05:58:21;;;;;;;9.65;5.95;;;;;;;1.22;76.05;96976.28;6246198;23;20021;-75
2023/01/26 06:00:49;;;;;;;11.52;6.95;;;;;;;1.17;75.98;96975.81;6247158;23;20091;-75
2023/01/26 06:03:17;;;;;;;10.90;6.70;;;;;;;1.17;77.37;96978.38;6247132;23;20099;-75
2023/01/26 06:05:52;;;;;;;10.63;6.50;;;;;;;1.19;76.90;96979.06;6247504;23;20024;-75
2023/01/26 06:08:19;;;;;;;9.18;5.95;;;;;;;1.23;77.00;96980.50;6246346;23;20034;-75
2023/01/26 06:10:47;;;;;;;9.90;5.72;;;;;;;1.27;77.35;96982.81;6247504;23;20099;-75
2023/01/26 06:13:15;;;;;;;11.43;6.25;;;;;;;1.35;77.80;96989.03;6248022;23;20111;-75
2023/01/26 06:15:42;;;;;;;13.57;7.05;;;;;;;1.38;76.84;96982.88;6248267;23;20023;-74
2023/01/26 06:18:10;;;;;;;14.43;7.30;;;;;;;1.34;75.92;96986.59;6270648;23;20079;-74
2023/01/26 06:20:37;;;;;;;10.13;6.55;;;;;;;1.30;76.33;96990.31;6271867;23;20077;-75
2023/01/26 06:23:10;;;;;;;12.82;5.30;;;;;;;1.27;76.64;96993.09;6271506;23;20076;-75
2023/01/26 06:25:39;;;;;;;;;;;;;;;1.22;75.66;96986.56;6271034;23;20012;-74
2023/01/26 06:28:06;;;;;;;8.10;5.07;;;;;;;1.15;75.41;96994.84;6246837;23;19927;-75
2023/01/26 06:30:34;;;;;;;10.55;5.70;;;;;;;1.03;75.94;96989.69;6247172;23;20020;-74
2023/01/26 06:33:02;;;;;;;10.38;5.88;;;;;;;0.95;75.94;96988.59;6246943;23;20031;-75
2023/01/26 06:35:29;;;;;;;10.15;6.28;;;;;;;0.93;75.90;96988.69;6247343;23;20020;-75
2023/01/26 06:37:57;;;;;;;11.75;6.18;;;;;;;0.92;75.65;96989.66;6245965;23;20477;-75
2023/01/26 06:40:25;;;;;;;14.45;6.68;;;;;;;0.91;75.66;96993.13;6246986;23;20495;-75
2023/01/26 06:42:53;;;;;;;12.82;6.18;;;;;;;0.95;76.64;96998.88;6247043;23;20351;-75
2023/01/26 06:45:21;;;;;;;10.43;5.70;;;;;;;0.94;75.89;96989.50;6255216;23;20071;-74
2023/01/26 06:47:49;;;;;;;9.48;6.47;;;;;;;0.82;74.75;96984.34;6258655;23;20457;-74
2023/01/26 06:50:19;;;;;;;12.07;6.35;;;;;;;0.70;74.54;96981.84;6250517;23;20333;-74
2023/01/26 06:52:50;;;;;;;9.02;5.40;;;;;;;0.60;74.90;96977.38;6246743;23;20544;-75
2023/01/26 06:55:22;;;;;;;9.52;5.93;;;;;;;0.53;74.77;96975.38;6246637;23;20016;-75
2023/01/26 06:57:51;;;;;;;10.98;5.25;;;;;;;0.47;75.12;96986.88;6245856;23;20099;-75
2023/01/26 07:00:19;;;;;;;10.43;5.25;;;;;;;0.41;74.91;96977.88;6246483;23;20031;-74
2023/01/26 07:02:47;;;;;;;10.48;5.60;;;;;;;0.43;75.76;96980.34;6246519;23;20472;-74
2023/01/26 07:05:14;;;;;;;10.90;6.13;;;;;;;0.48;76.36;96980.00;6246611;23;20457;-75
2023/01/26 07:07:42;;;;;;;11.18;5.88;;;;;;;0.52;76.12;96978.84;6246310;23;20353;-75
2023/01/26 07:10:10;;;;;;;10.30;6.30;;;;;;;0.57;76.26;96979.38;6247091;23;20104;-79
2023/01/26 07:12:40;;;;;;;9.07;5.85;;;;;;;0.63;76.28;96978.91;6246533;23;20020;-78
2023/01/26 07:15:10;;;;;;;10.80;6.47;;;;;;;0.68;77.21;96979.41;6247099;23;20023;-78
2023/01/26 07:17:38;;;;;;;11.65;6.68;;;;;;;0.75;77.63;96983.16;6247101;23;20026;-77
2023/01/26 07:20:07;;;;;;;9.38;5.68;;;;;;;0.80;77.49;96987.97;6242102;23;20035;-76
2023/01/26 07:22:34;;;;;;;8.63;5.63;;;;;;;0.86;77.93;96986.72;6245706;23;20195;-77
2023/01/26 07:25:02;;;;;;;11.00;6.32;;;;;;;0.94;78.20;96979.25;6243268;23;20063;-77
2023/01/26 07:27:30;;;;;;;9.13;5.38;;;;;;;1.00;77.72;96981.38;6245359;23;20012;-77
2023/01/26 07:29:57;;;;;;;9.13;6.18;;;;;;;1.04;78.05;96975.06;6245166;23;20020;-77
2023/01/26 07:32:26;;;;;;;10.68;5.43;;;;;;;1.08;78.43;96976.50;6244663;23;20479;-77
2023/01/26 07:34:54;;;;;;;9.27;5.57;;;;;;;1.12;78.25;96980.47;6244731;23;20468;-77
2023/01/26 07:37:21;;;;;;;7.60;4.50;;;;;;;1.14;77.59;96977.78;6246015;23;20020;-76
2023/01/26 07:39:49;;;;;;;8.50;5.07;;;;;;;1.13;76.40;96976.16;6245223;23;20020;-77
2023/01/26 07:42:17;;;;;;;7.97;4.68;;;;;;;1.13;76.45;96969.25;6245729;23;20035;-77
2023/01/26 07:44:44;;;;;;;9.38;5.85;;;;;;;1.15;76.91;96972.53;6246045;23;20050;-75
2023/01/26 07:47:13;;;;;;;8.32;5.53;;;;;;;1.20;77.75;96972.19;6246381;23;20016;-76
2023/01/26 07:49:42;;;;;;;7.35;4.70;;;;;;;1.16;75.42;96969.03;6244660;23;20043;-76
2023/01/26 07:52:09;;;;;;;8.23;4.93;;;;;;;1.11;75.14;96971.09;6246114;23;20039;-75
2023/01/26 07:54:37;;;;;;;9.68;5.13;;;;;;;1.11;75.23;96968.53;6245828;23;20027;-76
2023/01/26 07:57:07;;;;;;;7.72;5.15;;;;;;;1.12;74.79;96965.06;6246016;23;20074;-77
2023/01/26 07:59:34;;;;;;;8.52;4.30;;;;;;;1.12;74.43;96967.63;6244944;23;20020;-76
2023/01/26 08:02:02;;;;;;;8.25;4.47;;;;;;;1.09;74.34;96965.25;6245320;23;20016;-76
2023/01/26 08:04:29;;;;;;;7.65;4.93;;;;;;;1.06;74.38;96962.94;6245185;23;20024;-76
2023/01/26 08:06:58;;;;;;;6.85;4.60;;;;;;;1.06;74.76;96962.13;6245761;23;20363;-76
2023/01/26 08:09:26;;;;;;;5.78;3.78;;;;;;;1.07;75.25;96956.84;6244883;23;20066;-76
2023/01/26 08:11:56;;;;;;;8.07;5.28;;;;;;;1.08;75.67;96960.25;6245529;23;20027;-77
2023/01/26 08:14:24;;;;;;;6.28;4.60;;;;;;;1.06;75.02;96955.22;6245338;23;20110;-79
2023/01/26 08:16:51;;;;;;;15.43;9.63;;;;;;;1.07;73.65;96958.59;6245783;23;20023;-78
2023/01/26 08:19:19;;;;;;;13.25;9.18;;;;;;;1.03;73.40;96955.47;6245650;23;20020;-78
2023/01/26 08:21:46;;;;;;;14.30;9.23;;;;;;;1.03;74.92;96958.03;6245437;23;20103;-77
2023/01/26 08:24:15;;;;;;;12.05;8.05;;;;;;;1.09;76.03;96952.41;6246311;23;20155;-79
2023/01/26 08:26:43;;;;;;;10.23;6.57;;;;;;;1.14;76.56;96960.63;6246389;23;20020;-79
2023/01/26 08:29:10;;;;;;;9.75;6.13;;;;;;;1.18;76.58;96951.75;6244929;23;20416;-77
2023/01/26 08:31:38;;;;;;;9.88;6.22;;;;;;;1.22;77.26;96945.47;6246393;23;20023;-78
2023/01/26 08:34:05;;;;;;;8.15;4.82;;;;;;;1.23;75.53;96944.50;6246466;23;20085;-78
2023/01/26 08:36:33;;;;;;;8.10;5.10;;;;;;;1.22;75.13;96942.88;6246190;23;20031;-78
2023/01/26 08:39:01;;;;;;;8.65;4.72;;;;;;;1.23;74.50;96944.50;6245652;23;20358;-78
2023/01/26 08:41:31;;;;;;;7.80;4.88;;;;;;;1.27;74.29;96954.56;6246786;23;20393;-78
2023/01/26 08:43:59;;;;;;;7.72;4.93;;;;;;;1.30;75.45;96952.59;6245867;23;20095;-78
2023/01/26 08:46:27;;;;;;;9.55;5.85;;;;;;;1.33;76.40;96954.91;6245466;23;20020;-77
2023/01/26 08:48:54;;;;;;;12.95;8.65;;;;;;;1.35;76.00;96952.22;6245195;23;20024;-78
2023/01/26 08:51:22;;;;;;;12.48;8.48;;;;;;;1.36;76.41;96943.59;6246193;23;20016;-78
2023/01/26 08:53:50;;;;;;;11.65;8.55;;;;;;;1.40;77.08;96942.41;6246010;23;20020;-78
2023/01/26 08:56:17;;;;;;;9.60;5.93;;;;;;;1.42;76.92;96941.38;6245527;23;20475;-78
2023/01/26 08:58:47;;;;;;;7.30;5.05;;;;;;;1.42;77.03;96937.97;6245896;23;20025;-77
2023/01/26 09:01:16;;;;;;;8.60;5.60;;;;;;;1.37;75.31;96952.94;6245256;23;20384;-77
2023/01/26 09:03:44;;;;;;;8.63;5.35;;;;;;;1.34;76.18;96945.47;6246077;23;20028;-78
2023/01/26 09:06:14;;;;;;;9.48;5.28;;;;;;;1.38;77.54;96944.31;6246022;23;20474;-79
2023/01/26 09:08:42;;;;;;;8.30;5.07;;;;;;;1.42;77.33;96943.97;6243510;23;20475;-78
2023/01/26 09:11:10;;;;;;;9.88;5.82;;;;;;;1.45;77.96;96942.91;6245485;23;20071;-77
2023/01/26 09:13:38;;;;;;;9.57;5.85;;;;;;;1.47;77.55;96941.03;6245251;23;20042;-77
2023/01/26 09:16:12;;;;;;;7.65;5.35;;;;;;;1.52;77.98;96938.91;6244727;23;20012;-77
2023/01/26 09:18:40;;;;;;;7.93;5.20;;;;;;;1.51;76.74;96937.28;6243706;23;20016;-77
2023/01/26 09:21:09;;;;;;;8.45;5.07;;;;;;;1.43;74.89;96934.47;6245055;23;20027;-76
2023/01/26 09:23:37;;;;;;;7.43;4.97;;;;;;;1.37;75.21;96940.91;6245271;23;20020;-78
2023/01/26 09:26:05;;;;;;;9.18;5.55;;;;;;;1.33;74.94;96938.69;6245908;23;20028;-77
2023/01/26 09:28:32;;;;;;;8.63;5.60;;;;;;;1.27;74.68;96937.41;6246019;23;20318;-76
2023/01/26 09:31:04;;;;;;;9.77;5.80;;;;;;;1.24;73.80;96941.00;6246799;23;20348;-76
2023/01/26 09:33:33;;;;;;;12.25;7.45;;;;;;;1.28;76.19;96930.50;6248644;23;20020;-76
2023/01/26 09:36:05;;;;;;;9.50;5.93;;;;;;;1.33;75.38;96930.97;6260759;23;20044;-77
2023/01/26 09:38:33;;;;;;;9.82;5.88;;;;;;;1.33;74.81;96936.09;6256932;23;20052;-77
2023/01/26 09:41:06;;;;;;;10.18;5.53;;;;;;;1.36;75.79;96941.03;6245528;23;20078;-77
2023/01/26 09:43:40;;;;;;;10.57;6.40;;;;;;;1.39;74.32;96943.34;6246313;23;20099;-78
2023/01/26 09:46:20;;;;;;;8.93;5.72;;;;;;;1.38;74.85;96945.13;6245214;23;20050;-78
2023/01/26 09:49:01;;;;;;;8.75;5.10;;;;;;;1.34;73.50;96950.59;6244958;23;20391;-78
2023/01/26 09:51:34;;;;;;;9.63;5.85;;;;;;;1.37;76.52;96946.03;6244249;23;20016;-76
2023/01/26 09:54:06;;;;;;;11.07;6.43;;;;;;;1.42;76.83;96943.13;6237606;22;20087;-79
2023/01/26 09:56:34;;;;;;;12.60;8.15;;;;;;;1.46;76.88;96943.72;6215121;23;20052;-78
2023/01/26 09:59:05;;;;;;;9.65;7.65;;;;;;;1.48;75.90;96936.69;6213587;23;20016;-78
2023/01/26 10:01:40;;;;;;;8.30;5.82;;;;;;;1.47;73.97;96943.59;6214145;23;20019;-78
2023/01/26 10:04:22;;;;;;;12.85;8.18;;;;;;;1.46;76.71;96938.56;6220939;23;20092;-79
2023/01/26 10:06:53;;;;;;;8.70;5.63;;;;;;;1.44;74.86;96946.38;6244032;23;20026;-78
2023/01/26 10:09:23;;;;;;;9.00;5.97;;;;;;;1.39;74.62;96943.34;6252103;22;20020;-79
2023/01/26 10:11:54;;;;;;;9.18;5.97;;;;;;;1.32;75.56;96944.75;6271363;22;20023;-79
2023/01/26 10:14:31;;;;;;;9.32;5.60;;;;;;;1.28;74.38;96945.94;6272952;22;20010;-78
2023/01/26 10:17:01;;;;;;;9.73;6.00;;;;;;;1.33;76.52;96946.38;6252186;23;20016;-78
2023/01/26 10:19:36;;;;;;;9.60;5.93;;;;;;;1.41;77.17;96956.91;6249081;23;20059;-79
2023/01/26 10:22:07;;;;;;;9.00;5.72;;;;;;;1.46;77.06;96954.81;6248168;23;20066;-79
2023/01/26 10:24:35;;;;;;;8.02;5.00;;;;;;;1.44;76.69;96952.38;6246618;23;20064;-79
2023/01/26 10:27:12;;;;;;;8.88;5.50;;;;;;;1.40;77.22;96950.13;6247021;23;20036;-79
2023/01/26 10:29:40;;;;;;;11.02;6.25;;;;;;;1.36;76.19;96953.88;6245715;23;20020;-78
2023/01/26 10:32:14;;;;;;;9.80;5.57;;;;;;;1.31;74.57;96953.38;6245677;23;20527;-78
2023/01/26 10:34:45;;;;;;;10.15;5.63;;;;;;;1.27;74.37;96946.84;6246505;23;20103;-78
2023/01/26 10:37:20;;;;;;;10.75;6.07;;;;;;;1.28;74.93;96945.94;6246194;23;20020;-78
2023/01/26 10:40:07;;;;;;;10.63;5.57;;;;;;;1.25;73.46;96952.13;6243697;23;20111;-77
2023/01/26 10:42:37;;;;;;;10.23;6.22;;;;;;;1.19;74.97;96948.25;6247022;23;20028;-78
2023/01/26 10:45:22;;;;;;;9.55;5.82;;;;;;;1.19;76.45;96950.00;6263527;23;20068;-79
2023/01/26 10:48:03;;;;;;;10.48;5.82;;;;;;;1.21;75.12;96950.72;6267514;23;20432;-78
2023/01/26 10:50:32;;;;;;;12.10;6.60;;;;;;;1.18;75.00;96949.19;6253635;23;20020;-79
2023/01/26 10:53:01;;;;;;;11.07;6.03;;;;;;;1.19;75.33;96943.09;6246935;23;20016;-79
2023/01/26 10:55:30;;;;;;;10.57;5.63;;;;;;;1.16;75.67;96943.34;6247025;23;20360;-78
2023/01/26 10:57:58;;;;;;;9.52;5.70;;;;;;;1.13;75.36;96948.69;6246681;23;20032;-78
2023/01/26 11:00:29;;;;;;;9.48;6.40;;;;;;;1.10;75.00;96943.78;6246384;23;20016;-79
2023/01/26 11:03:04;;;;;;;12.15;6.57;;;;;;;1.09;74.12;96951.59;6249448;23;20024;-80
2023/01/26 11:05:33;;;;;;;10.57;6.00;;;;;;;1.09;74.24;96942.13;6266708;23;20024;-80
2023/01/26 11:08:02;;;;;;;11.63;6.50;;;;;;;1.08;73.76;96943.09;6263663;23;20482;-80
2023/01/26 11:10:32;;;;;;;11.85;6.43;;;;;;;1.08;73.82;96945.66;6250368;23;20048;-79
2023/01/26 11:13:11;;;;;;;10.25;5.90;;;;;;;1.08;73.52;96943.09;6247582;23;20110;-80
2023/01/26 11:15:41;;;;;;;10.98;6.25;;;;;;;1.04;73.60;96941.69;6247347;23;20027;-80
2023/01/26 11:18:22;;;;;;;10.68;5.95;;;;;;;1.00;73.38;96943.66;6247085;23;20127;-80
2023/01/26 11:28:43;;;;;;;11.23;6.18;;;;;;;0.88;73.00;96930.91;6246328;23;20020;-79
2023/01/26 11:34:55;;;;;;;9.05;5.55;;;;;;;0.80;73.28;96916.06;6211282;23;20383;-79
2023/01/26 11:48:44;;;;;;;13.82;5.90;;;;;;;0.88;72.82;96897.53;6244928;23;20355;-79
2023/01/26 12:29:12;;;;;;;9.70;5.50;;;;;;;0.85;72.70;96872.88;5954135;24;20024;-80
2023/01/26 12:32:15;;;;;;;9.32;5.63;;;;;;;0.87;72.12;96859.91;5983724;23;20025;-80
2023/01/26 12:34:42;;;;;;;10.45;5.47;;;;;;;0.88;72.33;96851.31;6077115;23;20073;-79
2023/01/26 12:37:30;;;;;;;8.70;4.75;;;;;;;0.84;71.50;96844.75;6123322;23;20029;-80
2023/01/26 12:40:11;;;;;;;8.77;4.78;;;;;;;0.82;71.67;96843.09;6122768;23;20022;-81
2023/01/26 12:42:45;;;;;;;9.35;5.60;;;;;;;0.83;71.52;96838.78;6123566;23;20025;-79
2023/01/26 12:45:18;;;;;;;17.55;7.00;;;;;;;0.80;71.71;96836.44;6123723;23;20022;-80
2023/01/26 12:47:52;;;;;;;22.10;7.47;;;;;;;0.79;71.41;96838.22;6124830;23;20029;-81
2023/01/26 12:50:27;;;;;;;13.38;6.53;;;;;;;0.79;72.85;96834.84;6124783;23;20018;-81
2023/01/26 12:53:01;;;;;;;10.55;4.93;;;;;;;0.81;72.29;96849.19;6124285;23;20024;-80
2023/01/26 12:55:34;;;;;;;9.13;5.15;;;;;;;0.78;71.46;96844.25;6123423;23;20014;-80
2023/01/26 12:58:12;;;;;;;10.15;6.22;;;;;;;0.74;71.21;96837.72;6122429;23;20018;-81
2023/01/26 13:00:52;;;;;;;10.32;5.78;;;;;;;0.73;71.91;96833.53;6124089;23;20482;-80
2023/01/26 13:03:23;;;;;;;10.38;5.75;;;;;;;0.73;71.91;96832.72;6123976;23;20478;-80
2023/01/26 13:05:58;;;;;;;9.73;5.72;;;;;;;0.74;71.76;96827.44;6123477;23;20017;-80
2023/01/26 13:08:52;;;;;;;10.50;5.93;;;;;;;0.76;72.21;96835.84;6122637;23;20459;-79
2023/01/26 13:11:42;;;;;;;10.88;5.82;;;;;;;0.81;72.95;96830.41;6123458;23;20022;-80
2023/01/26 13:14:34;;;;;;;9.60;5.55;;;;;;;0.84;71.67;96831.91;6120313;23;20022;-80
2023/01/26 13:17:48;;;;;;;9.68;5.43;;;;;;;0.84;71.76;96826.78;6124054;23;20024;-81
2023/01/26 13:20:48;;;;;;;11.30;6.20;;;;;;;0.84;71.91;96830.16;6123240;23;20022;-81
2023/01/26 13:23:39;;;;;;;12.27;6.05;;;;;;;0.85;71.27;96831.78;6117403;23;20137;-80
2023/01/26 13:26:18;;;;;;;13.15;6.18;;;;;;;0.85;71.68;96830.97;6124106;23;20094;-80
2023/01/26 13:28:47;;;;;;;10.43;6.05;;;;;;;0.84;71.72;96821.63;6123338;23;20589;-80
2023/01/26 13:31:34;;;;;;;11.50;6.10;;;;;;;0.86;73.65;96818.03;6122402;23;20049;-79
2023/01/26 13:34:29;;;;;;;13.23;6.15;;;;;;;0.93;74.65;96818.38;6104210;23;20029;-81
2023/01/26 13:37:06;;;;;;;11.95;6.15;;;;;;;0.96;73.74;96830.97;6125375;23;20022;-81
2023/01/26 13:39:37;;;;;;;11.77;6.13;;;;;;;0.96;72.68;96831.81;6124204;23;20026;-81